Time;durP1;ratioP1;P1;durP2;ratioP2;P2;SDS_P1;SDS_P2;PMS_P1;PMS_P2;Temp;Humidity;BMP_temperature;BMP_pressure;BME280_temperature;BME280_humidity;BME280_pressure;Samples;Min_cycle;Max_cycle;Signal;HPM_P1;HPM_P2
2022/05/11 00:00:23;;;;;;;10.63;2.95;;;;;;;;;;5084797;28;20229;-67
2022/05/11 00:02:49;;;;;;;8.65;2.63;;;;;;;;;;5082306;28;20028;-68
2022/05/11 00:05:16;;;;;;;13.73;2.88;;;;;;;;;;5087189;28;20077;-68
2022/05/11 00:07:42;;;;;;;12.00;3.00;;;;;;;;;;5083275;28;20027;-68
2022/05/11 00:10:12;;;;;;;10.48;3.30;;;;;;;;;;5083929;28;20036;-68
2022/05/11 00:12:42;;;;;;;10.60;3.25;;;;;;;;;;5076910;28;20032;-68
2022/05/11 00:15:09;;;;;;;11.13;2.55;;;;;;;;;;5086049;28;20081;-67
2022/05/11 00:17:35;;;;;;;9.20;3.53;;;;;;;;;;5084693;28;20024;-67
2022/05/11 00:20:02;;;;;;;14.23;3.53;;;;;;;;;;5084793;28;20035;-67
2022/05/11 00:22:28;;;;;;;12.05;3.75;;;;;;;;;;5082563;28;20105;-68
2022/05/11 00:24:54;;;;;;;11.95;3.25;;;;;;;;;;5083055;28;20493;-68
2022/05/11 00:27:20;;;;;;;11.63;3.55;;;;;;;;;;5081255;28;20124;-68
2022/05/11 00:29:47;;;;;;;12.25;3.67;;;;;;;;;;5079345;28;20024;-67
2022/05/11 00:32:13;;;;;;;12.02;3.63;;;;;;;;;;5078086;28;20091;-68
2022/05/11 00:34:39;;;;;;;12.10;3.80;;;;;;;;;;5081945;28;20749;-68
2022/05/11 00:37:05;;;;;;;11.73;3.30;;;;;;;;;;5083062;28;20031;-68
2022/05/11 00:39:33;;;;;;;11.13;3.60;;;;;;;;;;5080968;28;20043;-68
2022/05/11 00:42:01;;;;;;;19.38;3.97;;;;;;;;;;5081096;28;20503;-68
2022/05/11 00:44:27;;;;;;;11.52;3.42;;;;;;;;;;5083035;28;20040;-68
2022/05/11 00:46:53;;;;;;;14.20;4.60;;;;;;;;;;5080189;28;20089;-68
2022/05/11 00:49:38;;;;;;;18.65;4.18;;;;;;;;;;5083143;28;20024;-67
2022/05/11 00:52:10;;;;;;;11.10;4.18;;;;;;;;;;5083732;28;20060;-67
2022/05/11 00:54:39;;;;;;;11.13;4.15;;;;;;;;;;5083023;28;20028;-67
2022/05/11 00:57:08;;;;;;;15.93;4.53;;;;;;;;;;5085002;28;20027;-67
2022/05/11 00:59:37;;;;;;;12.63;4.55;;;;;;;;;;5084802;28;20071;-68
2022/05/11 01:02:04;;;;;;;10.57;4.38;;;;;;;;;;5081576;28;20062;-69
2022/05/11 01:04:31;;;;;;;22.33;5.05;;;;;;;;;;5081688;28;20125;-67
2022/05/11 01:06:58;;;;;;;12.73;4.78;;;;;;;;;;5082521;28;20028;-67
2022/05/11 01:09:24;;;;;;;15.30;4.85;;;;;;;;;;5079182;28;20472;-67
2022/05/11 01:11:51;;;;;;;14.68;5.05;;;;;;;;;;5079174;28;20028;-67
2022/05/11 01:14:22;;;;;;;15.88;5.43;;;;;;;;;;5081908;28;20108;-68
2022/05/11 01:16:49;;;;;;;13.52;4.78;;;;;;;;;;5080848;28;20024;-68
2022/05/11 01:19:17;;;;;;;13.82;5.45;;;;;;;;;;5083424;28;20115;-68
2022/05/11 01:21:46;;;;;;;16.60;5.43;;;;;;;;;;5080263;28;20030;-68
2022/05/11 01:24:47;;;;;;;16.35;5.07;;;;;;;;;;5079754;28;20172;-68
2022/05/11 01:27:22;;;;;;;14.27;5.00;;;;;;;;;;5010282;28;20042;-68
2022/05/11 01:29:48;;;;;;;14.70;5.20;;;;;;;;;;5076095;28;20039;-67
2022/05/11 01:32:14;;;;;;;16.63;4.85;;;;;;;;;;5079580;28;20430;-69
2022/05/11 01:34:40;;;;;;;15.50;4.82;;;;;;;;;;5081616;28;20034;-67
2022/05/11 01:37:07;;;;;;;13.75;5.15;;;;;;;;;;5079170;28;20039;-68
2022/05/11 01:39:33;;;;;;;17.40;5.20;;;;;;;;;;5080209;28;20461;-68
2022/05/11 01:41:59;;;;;;;13.20;4.85;;;;;;;;;;5080393;28;20028;-68
2022/05/11 01:44:25;;;;;;;17.08;4.90;;;;;;;;;;5083325;28;20047;-69
2022/05/11 01:46:52;;;;;;;15.18;4.65;;;;;;;;;;5077884;28;20103;-69
2022/05/11 01:49:19;;;;;;;8.40;3.78;;;;;;;;;;5085342;28;20032;-69
2022/05/11 01:51:45;;;;;;;17.63;4.95;;;;;;;;;;5082501;28;20020;-68
2022/05/11 01:54:12;;;;;;;11.50;4.80;;;;;;;;;;5080694;28;20709;-68
2022/05/11 01:56:39;;;;;;;10.98;4.22;;;;;;;;;;5082532;28;20117;-69
2022/05/11 01:59:05;;;;;;;12.82;4.93;;;;;;;;;;5087280;28;20056;-69
2022/05/11 02:01:32;;;;;;;13.00;4.78;;;;;;;;;;5083605;28;20503;-68
2022/05/11 02:03:59;;;;;;;15.40;4.97;;;;;;;;;;5080487;28;20118;-68
2022/05/11 02:09:10;;;;;;;12.32;4.47;;;;;;;;;;5087142;28;20540;-68
2022/05/11 02:11:36;;;;;;;11.80;4.72;;;;;;;;;;5076347;28;20139;-69
2022/05/11 02:14:02;;;;;;;18.30;4.82;;;;;;;;;;5082111;28;20109;-67
2022/05/11 02:16:28;;;;;;;16.08;5.10;;;;;;;;;;5077334;28;20012;-67
2022/05/11 02:18:55;;;;;;;13.52;5.13;;;;;;;;;;5079947;28;20116;-67
2022/05/11 02:21:21;;;;;;;16.83;5.40;;;;;;;;;;5077884;28;20047;-66
2022/05/11 02:23:50;;;;;;;14.27;5.50;;;;;;;;;;5079958;28;20106;-69
2022/05/11 02:26:17;;;;;;;12.30;5.90;;;;;;;;;;5073408;28;20036;-67
2022/05/11 02:28:43;;;;;;;14.23;5.30;;;;;;;;;;5082539;28;20339;-67
2022/05/11 02:31:09;;;;;;;14.13;5.70;;;;;;;;;;5079160;28;20508;-68
2022/05/11 02:33:35;;;;;;;20.52;6.45;;;;;;;;;;5082512;28;20423;-67
2022/05/11 02:36:01;;;;;;;14.00;5.63;;;;;;;;;;5080213;28;20040;-67
2022/05/11 02:38:29;;;;;;;12.07;4.85;;;;;;;;;;5083194;28;20028;-68
2022/05/11 02:40:56;;;;;;;16.80;5.18;;;;;;;;;;5080728;28;20414;-68
2022/05/11 02:43:22;;;;;;;16.02;5.07;;;;;;;;;;5084037;28;20158;-67
2022/05/11 02:45:49;;;;;;;12.82;5.63;;;;;;;;;;5086352;28;21234;-67
2022/05/11 02:48:16;;;;;;;14.25;5.32;;;;;;;;;;5085786;28;20023;-68
2022/05/11 02:50:45;;;;;;;14.88;4.80;;;;;;;;;;5087126;28;20032;-68
2022/05/11 02:53:11;;;;;;;13.48;5.78;;;;;;;;;;5083996;28;20042;-68
2022/05/11 02:55:57;;;;;;;14.20;5.03;;;;;;;;;;5083011;28;20044;-69
2022/05/11 02:58:25;;;;;;;10.73;4.32;;;;;;;;;;5086308;28;20062;-68
2022/05/11 03:00:52;;;;;;;16.08;5.03;;;;;;;;;;5085198;28;20047;-69
2022/05/11 03:03:18;;;;;;;11.50;4.50;;;;;;;;;;5081869;28;20859;-68
2022/05/11 03:05:45;;;;;;;11.25;4.47;;;;;;;;;;5085095;28;20105;-68
2022/05/11 03:08:11;;;;;;;10.23;4.22;;;;;;;;;;5083393;28;20056;-68
2022/05/11 03:10:39;;;;;;;11.80;4.20;;;;;;;;;;5087762;28;20032;-69
2022/05/11 03:13:06;;;;;;;12.65;4.88;;;;;;;;;;5082439;28;20119;-68
2022/05/11 03:15:32;;;;;;;11.00;4.38;;;;;;;;;;5084477;28;20032;-68
2022/05/11 03:17:58;;;;;;;11.15;4.07;;;;;;;;;;5082012;28;20020;-67
2022/05/11 03:20:26;;;;;;;11.23;3.95;;;;;;;;;;5086406;28;20028;-68
2022/05/11 03:22:52;;;;;;;7.82;3.45;;;;;;;;;;5081958;28;20107;-68
2022/05/11 03:25:18;;;;;;;11.20;3.55;;;;;;;;;;5085684;28;20028;-68
2022/05/11 03:27:44;;;;;;;14.43;3.60;;;;;;;;;;5081968;28;20055;-67
2022/05/11 03:30:11;;;;;;;8.23;3.00;;;;;;;;;;5087273;28;20024;-67
2022/05/11 03:35:21;;;;;;;9.07;2.65;;;;;;;;;;5086283;28;20063;-68
2022/05/11 03:37:47;;;;;;;9.98;2.88;;;;;;;;;;5085789;28;20115;-68
2022/05/11 03:40:13;;;;;;;7.35;2.40;;;;;;;;;;5085745;28;20102;-68
2022/05/11 03:42:40;;;;;;;11.38;3.00;;;;;;;;;;5081322;28;20136;-68
2022/05/11 03:45:16;;;;;;;8.63;2.10;;;;;;;;;;5084982;28;20110;-68
2022/05/11 03:47:43;;;;;;;10.68;2.45;;;;;;;;;;5083663;28;20028;-68
2022/05/11 03:50:09;;;;;;;7.88;2.25;;;;;;;;;;5081407;28;20028;-69
2022/05/11 03:52:36;;;;;;;9.60;2.35;;;;;;;;;;5080371;28;20115;-68
2022/05/11 03:55:02;;;;;;;9.55;2.15;;;;;;;;;;5085233;28;20024;-68
2022/05/11 03:57:28;;;;;;;7.05;2.40;;;;;;;;;;5083209;28;20028;-69
2022/05/11 03:59:54;;;;;;;8.45;1.60;;;;;;;;;;5087484;28;20056;-68
2022/05/11 04:02:20;;;;;;;8.73;1.98;;;;;;;;;;5084562;28;20036;-68
2022/05/11 04:04:47;;;;;;;23.67;2.50;;;;;;;;;;5083750;28;20045;-68
2022/05/11 04:07:13;;;;;;;7.88;2.17;;;;;;;;;;5085036;28;20033;-68
2022/05/11 04:09:39;;;;;;;10.40;2.03;;;;;;;;;;5082348;28;20465;-68
2022/05/11 04:12:08;;;;;;;10.40;1.83;;;;;;;;;;5082846;28;20113;-68
2022/05/11 04:14:34;;;;;;;11.80;1.90;;;;;;;;;;5082112;28;20570;-69
2022/05/11 04:17:00;;;;;;;7.57;2.20;;;;;;;;;;5083770;28;20066;-69
2022/05/11 04:19:26;;;;;;;9.10;1.90;;;;;;;;;;5086328;28;20087;-68
2022/05/11 04:21:52;;;;;;;6.65;1.80;;;;;;;;;;5083090;28;20032;-68
2022/05/11 04:24:18;;;;;;;8.00;2.05;;;;;;;;;;5084001;28;20028;-68
2022/05/11 04:26:44;;;;;;;30.13;3.42;;;;;;;;;;5081589;28;20067;-67
2022/05/11 04:29:10;;;;;;;7.60;1.83;;;;;;;;;;5083708;28;20111;-68
2022/05/11 04:31:37;;;;;;;12.30;2.25;;;;;;;;;;5079972;28;20028;-68
2022/05/11 04:34:03;;;;;;;7.80;1.85;;;;;;;;;;5084184;28;20024;-69
2022/05/11 04:36:30;;;;;;;7.47;2.00;;;;;;;;;;5082877;28;20160;-69
2022/05/11 04:38:56;;;;;;;6.85;1.83;;;;;;;;;;5086283;28;20028;-69
2022/05/11 04:41:22;;;;;;;10.43;2.63;;;;;;;;;;5083013;28;20662;-69
2022/05/11 04:43:48;;;;;;;11.48;1.80;;;;;;;;;;5084131;28;20062;-69
2022/05/11 04:46:14;;;;;;;10.68;1.90;;;;;;;;;;5084325;28;20028;-69
2022/05/11 04:48:42;;;;;;;11.10;2.00;;;;;;;;;;5082212;28;20265;-69
2022/05/11 04:51:08;;;;;;;8.25;1.90;;;;;;;;;;5082944;28;20024;-69
2022/05/11 04:53:34;;;;;;;13.05;2.13;;;;;;;;;;5083965;28;20394;-69
2022/05/11 04:56:00;;;;;;;11.65;2.20;;;;;;;;;;5083699;28;20032;-69
2022/05/11 04:58:26;;;;;;;6.90;1.90;;;;;;;;;;5083962;28;20044;-68
2022/05/11 05:00:54;;;;;;;14.02;1.83;;;;;;;;;;5082891;28;20485;-68
2022/05/11 05:03:20;;;;;;;7.63;1.98;;;;;;;;;;5082083;28;20032;-68
2022/05/11 05:05:46;;;;;;;9.02;1.95;;;;;;;;;;5082541;28;20055;-68
2022/05/11 05:08:13;;;;;;;6.82;1.75;;;;;;;;;;5083887;28;20055;-68
2022/05/11 05:10:39;;;;;;;7.85;1.63;;;;;;;;;;5084586;28;20478;-68
2022/05/11 05:13:11;;;;;;;7.32;2.00;;;;;;;;;;5085746;28;20028;-70
2022/05/11 05:15:38;;;;;;;8.55;2.67;;;;;;;;;;5088958;28;20020;-68
2022/05/11 05:18:06;;;;;;;8.38;1.83;;;;;;;;;;5079625;28;20537;-68
2022/05/11 05:20:32;;;;;;;7.75;1.85;;;;;;;;;;5081576;28;20036;-68
2022/05/11 05:22:58;;;;;;;13.85;2.75;;;;;;;;;;5083240;28;20036;-68
2022/05/11 05:25:25;;;;;;;7.22;2.10;;;;;;;;;;5084493;28;20024;-67
2022/05/11 05:27:52;;;;;;;10.38;1.90;;;;;;;;;;5082379;28;20060;-68
2022/05/11 05:33:03;;;;;;;7.70;1.75;;;;;;;;;;5083471;28;20100;-67
2022/05/11 05:35:29;;;;;;;7.90;1.77;;;;;;;;;;5081329;28;20035;-68
2022/05/11 05:37:56;;;;;;;9.55;1.70;;;;;;;;;;5084014;28;20024;-69
2022/05/11 05:40:22;;;;;;;12.25;1.77;;;;;;;;;;5084995;28;20538;-67
2022/05/11 05:42:48;;;;;;;9.85;2.05;;;;;;;;;;5084526;28;20028;-68
2022/05/11 05:45:14;;;;;;;7.38;1.88;;;;;;;;;;5083967;28;20024;-68
2022/05/11 05:47:41;;;;;;;6.10;1.50;;;;;;;;;;5082688;28;20506;-69
2022/05/11 05:50:07;;;;;;;10.32;1.60;;;;;;;;;;5083743;28;20388;-69
2022/05/11 05:52:33;;;;;;;8.13;1.55;;;;;;;;;;5080858;28;20153;-68
2022/05/11 05:55:01;;;;;;;9.68;1.52;;;;;;;;;;5083188;28;20099;-68
2022/05/11 05:57:27;;;;;;;10.45;1.98;;;;;;;;;;5081330;28;20036;-67
2022/05/11 05:59:54;;;;;;;4.75;1.58;;;;;;;;;;5083327;28;20274;-68
2022/05/11 06:02:20;;;;;;;13.95;2.25;;;;;;;;;;5082244;28;20039;-68
2022/05/11 06:04:47;;;;;;;10.45;1.40;;;;;;;;;;5082157;28;20070;-67
2022/05/11 06:07:14;;;;;;;9.10;1.90;;;;;;;;;;5083738;28;20088;-67
2022/05/11 06:09:40;;;;;;;5.57;1.40;;;;;;;;;;5083566;28;20143;-67
2022/05/11 06:12:08;;;;;;;6.18;1.50;;;;;;;;;;5085067;28;20028;-67
2022/05/11 06:14:34;;;;;;;9.45;1.45;;;;;;;;;;5083408;28;20055;-67
2022/05/11 06:17:01;;;;;;;9.10;1.65;;;;;;;;;;5081853;28;20024;-68
2022/05/11 06:19:27;;;;;;;9.27;1.80;;;;;;;;;;5085046;28;20036;-67
2022/05/11 06:21:54;;;;;;;7.50;2.22;;;;;;;;;;5085801;28;20035;-68
2022/05/11 06:24:20;;;;;;;21.25;2.33;;;;;;;;;;5086407;28;20055;-67
2022/05/11 06:26:46;;;;;;;9.02;1.63;;;;;;;;;;5087763;28;20032;-67
2022/05/11 06:29:12;;;;;;;16.98;1.80;;;;;;;;;;5082850;28;20035;-67
2022/05/11 06:31:38;;;;;;;12.05;2.15;;;;;;;;;;5082486;28;20028;-67
2022/05/11 06:34:04;;;;;;;14.65;3.05;;;;;;;;;;5081815;28;20052;-67
2022/05/11 06:36:30;;;;;;;7.28;1.40;;;;;;;;;;5084414;28;20028;-68
2022/05/11 06:38:57;;;;;;;10.82;1.65;;;;;;;;;;5085665;28;20032;-67
2022/05/11 06:41:24;;;;;;;6.53;1.52;;;;;;;;;;5083350;28;20040;-67
2022/05/11 06:43:51;;;;;;;9.75;2.00;;;;;;;;;;5087908;28;20028;-67
2022/05/11 06:46:17;;;;;;;7.55;2.15;;;;;;;;;;5083915;28;20029;-68
2022/05/11 06:48:45;;;;;;;7.60;1.63;;;;;;;;;;5086766;28;20063;-67
2022/05/11 06:51:11;;;;;;;8.90;1.80;;;;;;;;;;5079983;28;20046;-68
2022/05/11 06:59:24;;;;;;;5.25;1.48;;;;;;;;;;5085612;28;20090;-68
2022/05/11 07:01:51;;;;;;;8.82;1.70;;;;;;;;;;5084857;28;20040;-67
2022/05/11 07:04:17;;;;;;;10.23;1.60;;;;;;;;;;5081804;28;20059;-66
2022/05/11 07:06:43;;;;;;;9.35;1.65;;;;;;;;;;5080810;28;20024;-67
2022/05/11 07:09:09;;;;;;;9.85;2.55;;;;;;;;;;5086505;28;20036;-68
2022/05/11 07:14:20;;;;;;;9.65;1.77;;;;;;;;;;5084220;28;20073;-67
2022/05/11 07:16:46;;;;;;;9.82;2.40;;;;;;;;;;5084763;28;20028;-67
2022/05/11 07:19:13;;;;;;;10.45;1.65;;;;;;;;;;5085607;28;20028;-68
2022/05/11 07:21:39;;;;;;;7.70;1.23;;;;;;;;;;5085007;28;20024;-68
2022/05/11 07:24:05;;;;;;;9.35;1.70;;;;;;;;;;5081580;28;20124;-67
2022/05/11 07:26:31;;;;;;;9.80;1.77;;;;;;;;;;5085078;28;20115;-68
2022/05/11 07:28:57;;;;;;;10.93;2.05;;;;;;;;;;5084235;28;20119;-67
2022/05/11 07:31:23;;;;;;;8.80;1.85;;;;;;;;;;5085521;28;20036;-67
2022/05/11 07:33:50;;;;;;;7.97;2.13;;;;;;;;;;5082673;28;20461;-67
2022/05/11 07:36:16;;;;;;;9.25;1.55;;;;;;;;;;5083623;28;20024;-67
2022/05/11 07:38:42;;;;;;;9.07;1.30;;;;;;;;;;5086024;28;20278;-67
2022/05/11 07:41:08;;;;;;;16.98;1.45;;;;;;;;;;5084723;28;20155;-67
2022/05/11 07:43:37;;;;;;;6.10;1.13;;;;;;;;;;5079721;28;20567;-67
2022/05/11 07:46:03;;;;;;;7.82;1.40;;;;;;;;;;5082279;28;20042;-67
2022/05/11 07:48:29;;;;;;;13.77;2.97;;;;;;;;;;5084484;28;20577;-71
2022/05/11 07:50:55;;;;;;;6.78;1.25;;;;;;;;;;5078416;28;20028;-72
2022/05/11 07:53:21;;;;;;;11.07;1.42;;;;;;;;;;5080039;28;20413;-72
2022/05/11 07:55:47;;;;;;;17.58;1.67;;;;;;;;;;5082453;28;20024;-72
2022/05/11 08:00:59;;;;;;;8.32;1.60;;;;;;;;;;5081451;28;20069;-72
2022/05/11 08:03:25;;;;;;;7.07;1.52;;;;;;;;;;5077335;28;20130;-72
2022/05/11 08:05:51;;;;;;;7.90;1.23;;;;;;;;;;5085241;28;20042;-72
2022/05/11 08:08:17;;;;;;;4.80;1.23;;;;;;;;;;5089917;28;20508;-71
2022/05/11 08:10:45;;;;;;;5.28;1.25;;;;;;;;;;5086889;28;20043;-73
2022/05/11 08:13:11;;;;;;;6.22;1.05;;;;;;;;;;5079462;28;20491;-71
2022/05/11 08:15:47;;;;;;;13.80;1.92;;;;;;;;;;5087511;28;20032;-73
2022/05/11 08:18:13;;;;;;;10.43;1.40;;;;;;;;;;5089518;28;20113;-72
2022/05/11 08:20:42;;;;;;;8.23;1.15;;;;;;;;;;5087560;28;20032;-72
2022/05/11 08:23:09;;;;;;;6.60;1.65;;;;;;;;;;5085965;28;20043;-71
2022/05/11 08:25:36;;;;;;;9.52;1.20;;;;;;;;;;5088805;28;20027;-72
2022/05/11 08:28:03;;;;;;;9.88;1.08;;;;;;;;;;5088732;28;20028;-73
2022/05/11 08:33:28;;;;;;;4.82;0.90;;;;;;;;;;5090902;28;20031;-71
2022/05/11 08:35:59;;;;;;;11.43;2.92;;;;;;;;;;5089477;28;20024;-73
2022/05/11 08:38:30;;;;;;;4.13;0.93;;;;;;;;;;5089369;28;20429;-73
2022/05/11 08:41:04;;;;;;;5.63;1.30;;;;;;;;;;5089533;28;20028;-72
2022/05/11 08:43:31;;;;;;;6.07;1.48;;;;;;;;;;5089560;28;20382;-73
2022/05/11 08:46:16;;;;;;;7.35;1.05;;;;;;;;;;5089513;28;20020;-72
2022/05/11 08:48:51;;;;;;;11.85;1.35;;;;;;;;;;5098775;28;20051;-72
2022/05/11 08:51:22;;;;;;;20.23;1.88;;;;;;;;;;5090766;28;20087;-72
2022/05/11 08:53:51;;;;;;;13.15;1.52;;;;;;;;;;5091212;28;20024;-72
2022/05/11 08:56:18;;;;;;;23.63;1.52;;;;;;;;;;5090668;28;20028;-70
2022/05/11 08:58:49;;;;;;;13.25;1.40;;;;;;;;;;5088987;28;20048;-73
2022/05/11 09:01:18;;;;;;;21.33;1.60;;;;;;;;;;5089525;28;20036;-73
2022/05/11 09:03:45;;;;;;;7.93;1.20;;;;;;;;;;5090241;28;20038;-72
2022/05/11 09:06:16;;;;;;;16.10;1.50;;;;;;;;;;5089530;28;20030;-73
2022/05/11 09:08:42;;;;;;;17.13;2.00;;;;;;;;;;5088557;28;20036;-72
2022/05/11 09:11:11;;;;;;;68.00;6.20;;;;;;;;;;5089938;28;20056;-72
2022/05/11 09:13:39;;;;;;;11.27;1.35;;;;;;;;;;5088222;28;20036;-72
2022/05/11 09:16:06;;;;;;;7.57;1.40;;;;;;;;;;5089736;28;20036;-73
2022/05/11 09:18:32;;;;;;;12.07;1.55;;;;;;;;;;5087264;28;20036;-73
2022/05/11 09:20:59;;;;;;;7.88;1.40;;;;;;;;;;5089267;28;20059;-72
2022/05/11 09:23:33;;;;;;;5.68;1.30;;;;;;;;;;5087121;28;20039;-73
2022/05/11 09:26:01;;;;;;;7.50;1.85;;;;;;;;;;5087453;28;20024;-73
2022/05/11 09:28:32;;;;;;;11.05;1.73;;;;;;;;;;5095776;28;20031;-72
2022/05/11 09:31:03;;;;;;;13.27;1.92;;;;;;;;;;5097467;28;20024;-71
2022/05/11 09:33:33;;;;;;;13.63;1.70;;;;;;;;;;5107722;28;20111;-72
2022/05/11 09:36:02;;;;;;;;;;;;;;;;;;5110834;28;20031;-72
2022/05/11 09:38:28;;;;;;;9.70;1.80;;;;;;;;;;5109075;28;19912;-72
2022/05/11 09:40:56;;;;;;;10.80;1.50;;;;;;;;;;5110991;28;20486;-72
2022/05/11 09:43:31;;;;;;;8.75;2.08;;;;;;;;;;5098994;28;20055;-71
2022/05/11 09:45:57;;;;;;;7.40;2.03;;;;;;;;;;5090619;28;20028;-71
2022/05/11 09:48:25;;;;;;;11.52;1.85;;;;;;;;;;5105269;28;20088;-73
2022/05/11 09:50:54;;;;;;;12.55;2.42;;;;;;;;;;5111050;28;20488;-74
2022/05/11 09:53:24;;;;;;;13.18;1.88;;;;;;;;;;5111208;28;20027;-72
2022/05/11 09:55:53;;;;;;;13.25;2.35;;;;;;;;;;5095553;28;20107;-73
2022/05/11 09:58:32;;;;;;;9.98;2.00;;;;;;;;;;5075363;28;20042;-72
2022/05/11 10:01:10;;;;;;;8.57;2.10;;;;;;;;;;5111227;28;20134;-72
2022/05/11 10:03:38;;;;;;;18.50;2.47;;;;;;;;;;5109673;28;20023;-72
2022/05/11 10:06:04;;;;;;;11.45;1.88;;;;;;;;;;5107203;28;20482;-72
2022/05/11 10:08:32;;;;;;;14.75;2.53;;;;;;;;;;5084631;28;20048;-73
2022/05/11 10:11:11;;;;;;;19.88;2.25;;;;;;;;;;5083027;28;20031;-72
2022/05/11 10:13:43;;;;;;;13.73;2.65;;;;;;;;;;5080387;28;20170;-72
2022/05/11 10:22:14;;;;;;;30.58;3.25;;;;;;;;;;5083592;28;20145;-73
2022/05/11 10:24:40;;;;;;;14.52;2.40;;;;;;;;;;5079750;28;20039;-74
2022/05/11 10:27:12;;;;;;;18.75;3.80;;;;;;;;;;5091571;28;20024;-72
2022/05/11 10:30:03;;;;;;;22.17;2.60;;;;;;;;;;5097404;28;20386;-72
2022/05/11 10:32:32;;;;;;;12.32;2.78;;;;;;;;;;5086766;28;20024;-74
2022/05/11 10:34:57;;;;;;;11.45;2.53;;;;;;;;;;5085472;28;20032;-73
2022/05/11 10:37:36;;;;;;;22.02;2.53;;;;;;;;;;5081503;28;20542;-72
2022/05/11 10:40:09;;;;;;;29.00;2.88;;;;;;;;;;5079607;28;20017;-72
2022/05/11 10:42:44;;;;;;;36.10;3.17;;;;;;;;;;5080438;28;20509;-71
2022/05/11 10:45:10;;;;;;;14.25;2.45;;;;;;;;;;5086461;28;20039;-73
2022/05/11 10:47:42;;;;;;;15.18;2.72;;;;;;;;;;5089378;28;20101;-73
2022/05/11 10:50:11;;;;;;;20.10;2.38;;;;;;;;;;5084110;28;20123;-71
2022/05/11 10:52:37;;;;;;;10.98;2.35;;;;;;;;;;5079479;28;20490;-72
2022/05/11 10:55:25;;;;;;;17.33;2.67;;;;;;;;;;5083800;28;20023;-72
2022/05/11 10:58:03;;;;;;;12.27;2.33;;;;;;;;;;5080006;28;20042;-71
2022/05/11 11:00:31;;;;;;;14.38;2.08;;;;;;;;;;5081293;28;20070;-71
2022/05/11 11:02:57;;;;;;;10.90;2.33;;;;;;;;;;5076253;28;20032;-72
2022/05/11 11:05:32;;;;;;;19.73;2.22;;;;;;;;;;5085181;28;20234;-72
2022/05/11 11:08:15;;;;;;;16.25;2.17;;;;;;;;;;5072071;28;20052;-72
2022/05/11 11:10:44;;;;;;;6.80;1.55;;;;;;;;;;5082252;28;20032;-72
2022/05/11 11:13:23;;;;;;;7.68;2.13;;;;;;;;;;5084500;28;20290;-73
2022/05/11 11:15:53;;;;;;;12.73;2.20;;;;;;;;;;5078544;28;20024;-73
2022/05/11 11:18:23;;;;;;;11.57;2.20;;;;;;;;;;5082953;28;20043;-72
2022/05/11 11:20:50;;;;;;;14.40;2.50;;;;;;;;;;5091656;28;20105;-72
2022/05/11 11:23:16;;;;;;;17.17;2.38;;;;;;;;;;5084602;28;20024;-73
2022/05/11 11:25:47;;;;;;;12.25;2.13;;;;;;;;;;5088386;28;20024;-73
2022/05/11 11:28:15;;;;;;;7.88;1.75;;;;;;;;;;5082507;28;20101;-72
2022/05/11 11:31:00;;;;;;;10.32;2.22;;;;;;;;;;5087137;28;20038;-74
2022/05/11 11:33:39;;;;;;;7.22;2.13;;;;;;;;;;5084885;28;20381;-73
2022/05/11 11:36:17;;;;;;;12.30;1.90;;;;;;;;;;5084419;28;20028;-72
2022/05/11 11:38:43;;;;;;;10.45;2.17;;;;;;;;;;5082070;28;20036;-71
2022/05/11 11:41:09;;;;;;;9.25;1.98;;;;;;;;;;5081471;28;20571;-71
2022/05/11 11:43:43;;;;;;;10.93;2.05;;;;;;;;;;5079668;28;20054;-72
2022/05/11 11:46:10;;;;;;;16.67;1.67;;;;;;;;;;5072875;28;20065;-73
2022/05/11 11:48:38;;;;;;;9.52;1.77;;;;;;;;;;5070889;28;20056;-73
2022/05/11 11:51:05;;;;;;;7.75;1.52;;;;;;;;;;5083083;28;20085;-73
2022/05/11 11:53:36;;;;;;;8.38;1.70;;;;;;;;;;5088420;28;20020;-73
2022/05/11 11:56:21;;;;;;;6.68;1.40;;;;;;;;;;5086792;28;20075;-75
2022/05/11 11:58:47;;;;;;;7.18;1.60;;;;;;;;;;5090979;28;20036;-75
2022/05/11 12:01:15;;;;;;;28.92;2.30;;;;;;;;;;5080656;28;20481;-75
2022/05/11 12:03:52;;;;;;;14.88;1.55;;;;;;;;;;5087049;28;20032;-72
2022/05/11 12:17:30;;;;;;;7.35;1.08;;;;;;;;;;5081833;28;20097;-75
2022/05/11 12:19:57;;;;;;;8.27;1.15;;;;;;;;;;5082905;28;20024;-74
2022/05/11 12:22:25;;;;;;;4.38;1.20;;;;;;;;;;5088319;28;20028;-76
2022/05/11 12:25:11;;;;;;;6.45;1.10;;;;;;;;;;5089055;28;20484;-77
2022/05/11 12:27:38;;;;;;;11.88;1.45;;;;;;;;;;5085857;28;20032;-75
2022/05/11 12:30:07;;;;;;;90.05;5.70;;;;;;;;;;5086203;28;20354;-78
2022/05/11 12:32:33;;;;;;;11.88;1.40;;;;;;;;;;5084322;28;20020;-74
2022/05/11 12:35:19;;;;;;;40.92;3.33;;;;;;;;;;5080545;28;20464;-77
2022/05/11 12:38:03;;;;;;;6.85;1.48;;;;;;;;;;5077745;28;20044;-76
2022/05/11 12:40:31;;;;;;;9.50;1.70;;;;;;;;;;5088459;28;20039;-78
2022/05/11 12:42:59;;;;;;;10.98;1.88;;;;;;;;;;5085738;28;20039;-77
2022/05/11 12:45:27;;;;;;;11.00;2.28;;;;;;;;;;5089518;28;20547;-77
2022/05/11 12:47:54;;;;;;;8.60;1.83;;;;;;;;;;5085527;28;20137;-76
2022/05/11 12:50:33;;;;;;;7.03;1.73;;;;;;;;;;5088890;28;20047;-77
2022/05/11 12:53:03;;;;;;;6.38;2.47;;;;;;;;;;5087439;28;20027;-74
2022/05/11 12:55:34;;;;;;;10.23;1.90;;;;;;;;;;5083192;28;20090;-75
2022/05/11 12:58:01;;;;;;;11.25;1.80;;;;;;;;;;5085603;28;20035;-74
2022/05/11 13:00:29;;;;;;;10.35;2.20;;;;;;;;;;5085714;28;20056;-76
2022/05/11 13:02:56;;;;;;;7.40;1.58;;;;;;;;;;5083040;28;20382;-74
2022/05/11 13:05:23;;;;;;;7.50;1.40;;;;;;;;;;5080507;28;20039;-74
2022/05/11 13:07:52;;;;;;;8.15;1.88;;;;;;;;;;5077273;28;20402;-74
2022/05/11 13:10:23;;;;;;;17.13;1.85;;;;;;;;;;5078913;28;20128;-75
2022/05/11 13:12:53;;;;;;;13.85;1.90;;;;;;;;;;5078313;28;20020;-76
2022/05/11 13:15:34;;;;;;;10.68;2.15;;;;;;;;;;5084263;28;20549;-74
2022/05/11 13:18:00;;;;;;;7.55;1.83;;;;;;;;;;5076838;28;20489;-74
2022/05/11 13:20:27;;;;;;;11.05;2.40;;;;;;;;;;5061014;28;20536;-73
2022/05/11 13:22:54;;;;;;;8.73;2.20;;;;;;;;;;5079967;28;20028;-74
2022/05/11 13:25:39;;;;;;;13.40;2.78;;;;;;;;;;5070559;28;20029;-75
2022/05/11 13:28:22;;;;;;;15.38;3.17;;;;;;;;;;5082288;28;20024;-75
2022/05/11 13:30:48;;;;;;;10.95;2.47;;;;;;;;;;5083397;28;20012;-76
2022/05/11 13:33:29;;;;;;;17.23;3.85;;;;;;;;;;5082851;28;20035;-78
2022/05/11 13:36:10;;;;;;;15.07;3.40;;;;;;;;;;5083602;28;20161;-78
2022/05/11 13:38:36;;;;;;;8.25;2.35;;;;;;;;;;5077792;28;20028;-75
2022/05/11 13:41:04;;;;;;;12.23;2.70;;;;;;;;;;5086149;28;20117;-75
2022/05/11 13:43:31;;;;;;;15.27;3.70;;;;;;;;;;5080112;28;20067;-75
2022/05/11 13:46:02;;;;;;;12.15;3.05;;;;;;;;;;5084283;28;20028;-73
2022/05/11 13:48:30;;;;;;;10.85;2.67;;;;;;;;;;5077711;28;20118;-74
2022/05/11 13:51:06;;;;;;;13.50;2.55;;;;;;;;;;5084267;28;20024;-78
2022/05/11 13:53:34;;;;;;;17.20;3.08;;;;;;;;;;5085541;28;20460;-75
2022/05/11 13:56:21;;;;;;;14.18;3.00;;;;;;;;;;5085533;28;20227;-78
2022/05/11 13:58:57;;;;;;;14.65;3.40;;;;;;;;;;5080612;28;20119;-76
2022/05/11 14:01:24;;;;;;;12.43;3.00;;;;;;;;;;5087001;28;20906;-75
2022/05/11 14:03:56;;;;;;;16.50;3.78;;;;;;;;;;5088450;28;20024;-76
2022/05/11 14:06:30;;;;;;;15.95;3.17;;;;;;;;;;5085353;28;20028;-76
2022/05/11 14:08:56;;;;;;;13.88;3.83;;;;;;;;;;5079752;28;20341;-76
2022/05/11 14:11:23;;;;;;;16.20;3.47;;;;;;;;;;5084533;28;20493;-77
2022/05/11 14:13:49;;;;;;;24.70;3.97;;;;;;;;;;5085763;28;20031;-77
2022/05/11 14:16:24;;;;;;;18.60;4.50;;;;;;;;;;5085373;28;20039;-77
2022/05/11 14:18:50;;;;;;;13.15;3.35;;;;;;;;;;5084718;28;20059;-76
2022/05/11 14:21:16;;;;;;;20.08;3.90;;;;;;;;;;5085198;28;20031;-76
2022/05/11 14:23:43;;;;;;;30.42;4.72;;;;;;;;;;5083315;28;20032;-75
2022/05/11 14:26:09;;;;;;;14.38;3.60;;;;;;;;;;5083307;28;20545;-76
2022/05/11 14:28:36;;;;;;;23.08;4.15;;;;;;;;;;5082430;28;20228;-76
2022/05/11 14:31:02;;;;;;;12.93;3.50;;;;;;;;;;5082010;28;20027;-78
2022/05/11 14:33:28;;;;;;;17.02;3.72;;;;;;;;;;5066376;28;20051;-77
2022/05/11 14:35:54;;;;;;;17.45;4.10;;;;;;;;;;5083139;28;20020;-78
2022/05/11 14:38:21;;;;;;;14.45;2.88;;;;;;;;;;5081737;28;20043;-78
2022/05/11 14:40:47;;;;;;;19.20;4.03;;;;;;;;;;5083966;28;20440;-78
2022/05/11 14:43:17;;;;;;;17.48;3.65;;;;;;;;;;5087137;28;20024;-75
2022/05/11 14:45:44;;;;;;;21.25;3.47;;;;;;;;;;5088612;28;20117;-75
2022/05/11 14:48:13;;;;;;;16.88;3.70;;;;;;;;;;5091251;28;20043;-78
2022/05/11 14:50:39;;;;;;;21.85;3.90;;;;;;;;;;5091832;28;20567;-75
2022/05/11 14:53:08;;;;;;;15.63;3.70;;;;;;;;;;5092821;28;20126;-74
2022/05/11 14:55:34;;;;;;;20.17;4.25;;;;;;;;;;5092498;28;20111;-77
2022/05/11 15:03:29;;;;;;;28.80;4.80;;;;;;;;;;5071668;28;20135;-78
2022/05/11 15:05:56;;;;;;;18.80;3.75;;;;;;;;;;5069567;28;20489;-76
2022/05/11 15:08:23;;;;;;;13.23;3.58;;;;;;;;;;5086969;28;20504;-75
2022/05/11 15:13:29;;;;;;;16.70;3.95;;;;;;;;;;5091118;28;20047;-76
2022/05/11 15:13:36;;;;;;;15.77;3.30;;;;;;;;;;5085978;28;20630;-75
2022/05/11 15:16:02;;;;;;;14.63;3.22;;;;;;;;;;5080852;28;20021;-78
2022/05/11 15:18:29;;;;;;;25.10;4.20;;;;;;;;;;5079712;28;20028;-77
2022/05/11 15:20:56;;;;;;;18.52;3.80;;;;;;;;;;5084738;28;20093;-76
2022/05/11 15:23:22;;;;;;;37.80;4.20;;;;;;;;;;5084068;28;20039;-76
2022/05/11 15:25:48;;;;;;;28.55;4.22;;;;;;;;;;5085880;28;20689;-75
2022/05/11 15:28:15;;;;;;;21.00;3.53;;;;;;;;;;5084401;28;20159;-76